Report METAR

 


LIBF - Foggia/Gino Lisa, Italy
Distance from station: NE 23km
Dati ricevuti: 24/01/2021 10:50
Parz. nuvoloso
Parz. nuvoloso
 Vento da SE
Vento: SE 9 km/h
Temperatura: 12°C
P.to Rugiada: 7°C
Umidità: 72%
Barometro: 1000 hPa
Nuvole: Parz. nuvoloso
Visibility: 10 km
Cloud details: Parz. nuvoloso 1067 m
2021/01/24 09:50 LIBF 240950Z 13005KT 9999 SCT035 12/07 Q1000
LIRT - Trevico, Italy
Distance from station: SSO 28km
Dati ricevuti: 20/01/2021 11:55
DATI Obsoleti
Nubi sparse
Nubi sparse
 Vento da O
Vento: O 28 km/h
Temperatura: 4°C
Temperatura del Vento: -1°C
P.to Rugiada: 1°C
Umidità: 81%
Barometro: 1023 hPa
Nuvole: Nubi sparse
Visibility: 10 km
Cloud details: Nubi sparse 122 m
2021/01/20 10:55 LIRT 201055Z 27015KT 9999 FEW004 04/01 Q1023 RMK SCT SCT170 MON CIME INC VIS MIN 9999
LIBA - Amendola (it-Afb, Italy
Distance from station: NE 42km
Dati ricevuti: 20/01/2021 19:55
DATI Obsoleti
Nubi sparse
Nubi sparse
 Vento da SSO
Vento: SSO 9 km/h
Temperatura: 10°C
Temperatura del Vento: 9°C
P.to Rugiada: 6°C
Umidità: 76%
Barometro: 1022 hPa
Nuvole: Nubi sparse
Visibility: 10 km
Cloud details: Nubi sparse 1524 m
2021/01/20 18:55 LIBA 201855Z 21005KT 9999 FEW050 10/06 Q1022 RMK OVC OVC200 VIS MIN 9999 WIND THR11 21007KT WIND THR29 /////KT BLU
 
LIRI - Pontecagnano (af, Italy
Distance from station: SSO 81km
Dati ricevuti: 24/01/2021 10:50
Pioggia, Coperto
Pioggia, Coperto
 Vento da S
Vento: S 28 km/h
Temperatura: 13°C
P.to Rugiada: 11°C
Umidità: 88%
Barometro: 1002 hPa
Summary: Pioggia
Nuvole: Coperto
Visibility: 5 km
Cloud details: Parz. nuvoloso 457 m
Coperto 914 m
2021/01/24 09:50 LIRI 240950Z 18015KT 5000 RA SCT015 OVC030 13/11 Q1002
LIRN - Naples/Capodichi, Italy
Distance from station: OSO 96km
Dati ricevuti: 24/01/2021 10:50
Pioggia, Nuvoloso
Pioggia, Nuvoloso
 Vento da SSO
Vento: SSO 17 km/h
Temperatura: 12°C
P.to Rugiada: 11°C
Umidità: 94%
Barometro: 1000 hPa
Summary: Pioggia
Nuvole: Molto nuvoloso
Visibility: 2 km
Cloud details: Parz. nuvoloso 305 m
Molto nuvoloso 457 m
2021/01/24 09:50 LIRN 240950Z 21009KT 180V240 2000 RA SCT010 BKN015 12/11 Q1000 NOSIG
LIRM - Grazzanise (it-A, Italy
Distance from station: OSO 109km
Dati ricevuti: 24/01/2021 10:55
Pioviggine, Nuvoloso
Pioviggine, Nuvoloso
 Vento da Variabile
Vento: Variabile 0 km/h
Temperatura: 13°C
P.to Rugiada: 12°C
Umidità: 94%
Barometro: 999 hPa
Summary: Pioviggine
Nuvole: Molto nuvoloso
Visibility: 4 km
Cloud details: Nubi sparse 549 m
Molto nuvoloso 914 m
2021/01/24 09:55 LIRM 240955Z /////KT 4200 -RA FEW018 BKN030 13/12 Q0999 RERA
 
LIBD - Bari/Palese Macc, Italy
Distance from station: E 121km
Dati ricevuti: 24/01/2021 10:50
Nubi sparse
Nubi sparse
 Vento da S
Vento: S 15 km/h
Temperatura: 13°C
P.to Rugiada: 5°C
Umidità: 59%
Barometro: 1002 hPa
Nuvole: Nubi sparse
Visibility: 10 km
Cloud details: Nubi sparse 1219 m
2021/01/24 09:50 LIBD 240950Z 17008KT 9999 FEW040 13/05 Q1002
LIQC - Capri Island, Italy
Distance from station: SO 124km
Dati ricevuti: 20/01/2021 19:55
DATI Obsoleti
Parz. nuvoloso
Parz. nuvoloso
 Vento da SSE
Vento: SSE 6 km/h
Temperatura: 12°C
P.to Rugiada: 8°C
Umidità: 77%
Barometro: 1024 hPa
Nuvole: Parz. nuvoloso
Visibility: 10 km
Cloud details: Parz. nuvoloso 610 m
2021/01/20 18:55 LIQC 201855Z 16003KT 9999 SCT020 12/08 Q1024 RMK SCT QUK / QUL / VIS MAR 25 KM VIS MIN 9999
LIBV - Gioia Del Colle, Italy
Distance from station: ESE 144km
Dati ricevuti: 20/01/2021 19:55
DATI Obsoleti
Parz. nuvoloso
Parz. nuvoloso
 Vento da ESE
Vento: ESE 15 km/h
Temperatura: 7°C
Temperatura del Vento: 4°C
P.to Rugiada: 7°C
Umidità: 100%
Barometro: 1022 hPa
Nuvole: Parz. nuvoloso
Visibility: 10 km
Cloud details: Parz. nuvoloso 1524 m
2021/01/20 18:55 LIBV 201855Z 12008KT 9999 SCT050 07/07 Q1022 RMK BKN SCT200 VIS MIN 9999 WIND THR32 13008KT WIND THR14 13007KT BLU
 
LIBP - Pescara, Italy
Distance from station: NO 159km
Dati ricevuti: 24/01/2021 10:50
Molto nuvoloso
Molto nuvoloso
 Vento da OSO
Vento: OSO 31 km/h, Raffica: 54 km/h
Temperatura: 14°C
P.to Rugiada: 3°C
Umidità: 48%
Barometro: 995 hPa
Nuvole: Molto nuvoloso
Visibility: 10 km
Cloud details: Molto nuvoloso 3962 m
2021/01/24 09:50 LIBP 240950Z AUTO 24017G29KT 9999 BKN130/// 14/03 Q0995
LIBH - Marina Di Ginosa, Italy
Distance from station: SE 160km
Dati ricevuti: 20/01/2021 19:55
DATI Obsoleti
Sereno
Sereno
 Vento da SO
Vento: SO 13 km/h
Temperatura: 12°C
P.to Rugiada: 8°C
Umidità: 77%
Barometro: 1021 hPa
Summary: Sereno
Visibility: superiore a 10 km
2021/01/20 18:55 LIBH 201855Z 23007KT CAVOK 12/08 Q1021 RMK FEW FEW100 QUK / QUL / VIS MAR 30 KM VIS MIN 9999
LIRH - Frosinone (it-Af, Italy
Distance from station: ONO 174km
Dati ricevuti: 22/01/2021 18:55
DATI Obsoleti
Pioviggine, Mist, Nuvoloso
Pioviggine, Mist, Nuvoloso
 Vento da ENE
Vento: ENE 24 km/h
Temperatura: 12°C
P.to Rugiada: 8°C
Umidità: 77%
Barometro: 1009 hPa
Summary: Pioviggine, Mist
Nuvole: Molto nuvoloso
Visibility: 3 km
Cloud details: Nubi sparse 152 m
Nubi sparse 671 m
Molto nuvoloso 762 m
2021/01/22 17:55 LIRH 221755Z 07013KT 3000 -RA BR FEW005 FEW022CB BKN025 12/08 Q1009
 
LIBG - Grottaglie(Civ/A, Italy
Distance from station: ESE 192km
Dati ricevuti: 24/01/2021 10:50
Parz. nuvoloso
Parz. nuvoloso
 Vento da S
Vento: S 17 km/h
Temperatura: 14°C
P.to Rugiada: 7°C
Umidità: 63%
Barometro: 1004 hPa
Nuvole: Parz. nuvoloso
Visibility: 10 km
Cloud details: Parz. nuvoloso 1463 m
2021/01/24 09:50 LIBG 240950Z 19009KT 9999 SCT048 14/07 Q1004
LIRL - Latina (it-Afb), Italy
Distance from station: O 205km
Dati ricevuti: 22/01/2021 18:55
DATI Obsoleti
Pioviggine, Nuvoloso
Pioviggine, Nuvoloso
 Vento da SE
Vento: SE 24 km/h
Temperatura: 13°C
P.to Rugiada: 12°C
Umidità: 94%
Barometro: 1008 hPa
Summary: Pioviggine
Nuvole: Molto nuvoloso
Visibility: 10 km
Cloud details: Parz. nuvoloso 457 m
Molto nuvoloso 1219 m
2021/01/22 17:55 LIRL 221755Z 13013KT 9999 -RA SCT015 BKN040 13/12 Q1008
LIBR - Brindisi/Casale, Italy
Distance from station: ESE 231km
Dati ricevuti: 24/01/2021 10:50
Sereno
Sereno
 Vento da S
Vento: S 15 km/h
Temperatura: 13°C
P.to Rugiada: 9°C
Umidità: 77%
Barometro: 1004 hPa
Summary: Sereno
Visibility: superiore a 10 km
2021/01/24 09:50 LIBR 240950Z 18008KT CAVOK 13/09 Q1004
 
LIRG - Guidonia (it-Afb, Italy
Distance from station: ONO 232km
Dati ricevuti: 22/01/2021 18:55
DATI Obsoleti
Parz. nuvoloso
Parz. nuvoloso
 Vento da SSE
Vento: SSE 30 km/h, Raffica: 50 km/h
Temperatura: 13°C
P.to Rugiada: 9°C
Umidità: 77%
Barometro: 1006 hPa
Nuvole: Parz. nuvoloso
Visibility: 10 km
Cloud details: Molto nuvoloso 762 m
Parz. nuvoloso 914 m
2021/01/22 17:55 LIRG 221755Z 15016G27KT 9999 BKN025 SCT030 13/09 Q1006 RERA
LIBQ - Scuro Mountain, Italy
Distance from station: SSE 235km
Dati ricevuti: 20/01/2021 16:55
DATI Obsoleti
Freezing Fog
Freezing Fog
 Vento da Variabile
Vento: Variabile 6 km/h
Temperatura: -1°C
P.to Rugiada: -1°C
Umidità: 100%
Barometro: 1021 hPa
Summary: Freezing Fog
Visibility: 0 km
2021/01/20 15:55 LIBQ 201555Z VRB03KT 0000 FZFG VV/// M01/M01 Q1021 RMK MON INVIS VAL INVIS VIS MIN 0000
LIRA - Ciampino(It-Afb/, Italy
Distance from station: ONO 236km
Dati ricevuti: 24/01/2021 10:50
Pioggia, Nuvoloso
Pioggia, Nuvoloso
 Vento da S
Vento: S 19 km/h
Temperatura: 10°C
Temperatura del Vento: 7°C
P.to Rugiada: 8°C
Umidità: 88%
Barometro: 996 hPa
Summary: Pioggia
Nuvole: Molto nuvoloso
Visibility: 4 km
Cloud details: Nubi sparse 457 m
Parz. nuvoloso 914 m
Molto nuvoloso 1524 m
2021/01/24 09:50 LIRA 240950Z 17010KT 4000 RA FEW015 SCT030 BKN050 10/08 Q0996
 
LIQN - Rieti, Italy
Distance from station: ONO 243km
Dati ricevuti: 24/01/2021 10:50
Pioggia, Mist, Nuvoloso
Pioggia, Mist, Nuvoloso
 Vento da E
Vento: E 20 km/h
Temperatura: 6°C
Temperatura del Vento: 2°C
P.to Rugiada: 4°C
Umidità: 87%
Barometro: 996 hPa
Summary: Pioggia, Mist
Nuvole: Molto nuvoloso
Visibility: 3 km
Cloud details: Molto nuvoloso 914 m
2021/01/24 09:50 LIQN 240950Z 10011KT 3000 RA BR BKN030 06/04 Q0996
LIRE - Pratica Di Mare(, Italy
Distance from station: O 246km
Dati ricevuti: 23/01/2021 00:11
DATI Obsoleti
Light thunderstorm, Pioggia, Parz. nuvoloso
Light thunderstorm, Pioggia, Parz. nuvoloso
 Vento da SO
Vento: SO 28 km/h, Raffica: 46 km/h
Temperatura: 11°C
P.to Rugiada: 10°C
Umidità: 94%
Barometro: 1002 hPa
Summary: Light thunderstorm, Pioggia
Nuvole: Parz. nuvoloso
Visibility: 8 km
Cloud details: Parz. nuvoloso 549 m
Nubi sparse 610 m
Parz. nuvoloso 914 m
2021/01/22 23:11 LIRE 222311Z 22015G25KT 8000 -TSRA SCT018 FEW020CB SCT030 11/10 Q1002 RERAGR RMK OVC VIS MIN 8000 WIND THR13 22014KT WIND THR31 /////KT BLU